createdAt,value
2023-08-11T03:34:34.849Z,12.63
2023-08-11T03:54:45.178Z,12.74
2023-08-11T04:14:49.033Z,12.79
2023-08-11T04:34:55.266Z,13.56
2023-08-11T04:54:58.239Z,15.32
2023-08-11T05:15:01.082Z,16.92
2023-08-11T05:35:07.166Z,18.14
2023-08-11T06:15:27.335Z,19.48
2023-08-11T06:35:30.840Z,20.25
2023-08-11T06:55:33.575Z,20.59
2023-08-11T07:15:39.088Z,20.88
2023-08-11T07:35:42.122Z,20.84
2023-08-11T07:55:44.893Z,21.08
2023-08-11T08:15:47.622Z,21.68
2023-08-11T08:35:50.352Z,22.18
2023-08-11T08:55:53.290Z,22.79
2023-08-11T09:15:56.191Z,23.19
2023-08-11T09:35:59.014Z,23.53
2023-08-11T09:56:01.770Z,24.16
2023-08-11T10:16:15.014Z,24.85
2023-08-11T10:36:18.050Z,25.69
2023-08-11T10:56:27.430Z,25.00
2023-08-11T11:16:30.196Z,26.65
2023-08-11T11:36:34.143Z,28.13
2023-08-11T11:56:38.110Z,29.76
2023-08-11T12:16:42.562Z,28.08
2023-08-11T12:36:45.398Z,28.32
2023-08-11T12:56:48.256Z,28.21
2023-08-11T13:16:51.324Z,29.83
2023-08-11T13:36:54.207Z,29.84
2023-08-11T13:56:56.952Z,29.22
2023-08-11T14:16:59.663Z,30.24
2023-08-11T14:37:02.715Z,29.10
2023-08-11T14:57:05.734Z,28.11
2023-08-11T15:17:09.655Z,26.87
2023-08-11T15:37:13.861Z,27.17
2023-08-11T15:57:16.578Z,26.38
2023-08-11T16:17:20.070Z,26.55
2023-08-11T16:37:25.450Z,26.12
2023-08-11T16:57:28.263Z,27.00
2023-08-11T17:17:30.943Z,26.84
2023-08-11T17:37:33.652Z,25.14
2023-08-11T17:57:36.348Z,24.21
2023-08-11T18:17:39.102Z,23.72
2023-08-11T18:37:41.972Z,23.28
2023-08-11T18:57:44.791Z,22.58
2023-08-11T19:17:47.528Z,21.84
2023-08-11T19:37:50.306Z,21.47
2023-08-11T19:57:53.031Z,21.21
2023-08-11T20:17:55.770Z,21.34
2023-08-11T20:37:59.018Z,21.26
2023-08-11T21:18:19.222Z,20.32
2023-08-11T21:58:38.862Z,19.27
2023-08-11T22:18:42.058Z,18.70
2023-08-11T22:58:58.173Z,18.12
2023-08-11T23:19:00.884Z,17.90
2023-08-11T23:39:03.517Z,17.30
2023-08-11T23:59:06.398Z,17.11
